sensor_id;sensor_type;location;lat;lon;timestamp;P1;durP1;ratioP1;P2;durP2;ratioP2
48357;SDS011;41929;51.478;-0.026;2022-11-14T00:02:19;251.65;;;70.65;;
48357;SDS011;41929;51.478;-0.026;2022-11-14T00:04:45;366.70;;;80.05;;
48357;SDS011;41929;51.478;-0.026;2022-11-14T00:07:11;222.45;;;67.93;;
48357;SDS011;41929;51.478;-0.026;2022-11-14T00:09:37;280.63;;;73.68;;
48357;SDS011;41929;51.478;-0.026;2022-11-14T00:12:04;377.17;;;77.43;;
48357;SDS011;41929;51.478;-0.026;2022-11-14T00:14:30;422.75;;;87.65;;
48357;SDS011;41929;51.478;-0.026;2022-11-14T00:16:55;256.88;;;70.55;;
48357;SDS011;41929;51.478;-0.026;2022-11-14T00:19:20;224.98;;;69.85;;
48357;SDS011;41929;51.478;-0.026;2022-11-14T00:21:46;286.95;;;78.05;;
48357;SDS011;41929;51.478;-0.026;2022-11-14T00:24:11;391.20;;;86.70;;
48357;SDS011;41929;51.478;-0.026;2022-11-14T00:26:37;266.25;;;78.07;;
48357;SDS011;41929;51.478;-0.026;2022-11-14T00:29:02;278.42;;;73.25;;
48357;SDS011;41929;51.478;-0.026;2022-11-14T00:31:27;268.10;;;74.88;;
48357;SDS011;41929;51.478;-0.026;2022-11-14T00:33:53;165.75;;;67.93;;
48357;SDS011;41929;51.478;-0.026;2022-11-14T00:36:18;147.93;;;65.93;;
48357;SDS011;41929;51.478;-0.026;2022-11-14T00:38:43;153.60;;;67.00;;
48357;SDS011;41929;51.478;-0.026;2022-11-14T00:41:09;333.35;;;82.95;;
48357;SDS011;41929;51.478;-0.026;2022-11-14T00:43:34;249.18;;;77.25;;
48357;SDS011;41929;51.478;-0.026;2022-11-14T00:45:59;212.05;;;75.53;;
48357;SDS011;41929;51.478;-0.026;2022-11-14T00:48:25;217.98;;;77.60;;
48357;SDS011;41929;51.478;-0.026;2022-11-14T00:50:50;255.32;;;83.20;;
48357;SDS011;41929;51.478;-0.026;2022-11-14T00:53:15;216.40;;;82.75;;
48357;SDS011;41929;51.478;-0.026;2022-11-14T00:55:41;170.93;;;74.78;;
48357;SDS011;41929;51.478;-0.026;2022-11-14T00:58:06;175.98;;;71.82;;
48357;SDS011;41929;51.478;-0.026;2022-11-14T01:00:32;158.02;;;72.78;;
48357;SDS011;41929;51.478;-0.026;2022-11-14T01:02:58;157.55;;;71.20;;
48357;SDS011;41929;51.478;-0.026;2022-11-14T01:05:23;144.10;;;69.88;;
48357;SDS011;41929;51.478;-0.026;2022-11-14T01:07:49;158.27;;;68.18;;
48357;SDS011;41929;51.478;-0.026;2022-11-14T01:10:15;143.48;;;71.68;;
48357;SDS011;41929;51.478;-0.026;2022-11-14T01:12:41;158.85;;;73.10;;
48357;SDS011;41929;51.478;-0.026;2022-11-14T01:15:07;146.30;;;74.10;;
48357;SDS011;41929;51.478;-0.026;2022-11-14T01:17:32;154.90;;;72.38;;
48357;SDS011;41929;51.478;-0.026;2022-11-14T01:19:58;141.82;;;67.60;;
48357;SDS011;41929;51.478;-0.026;2022-11-14T01:22:23;183.68;;;79.35;;
48357;SDS011;41929;51.478;-0.026;2022-11-14T01:24:49;171.93;;;79.28;;
48357;SDS011;41929;51.478;-0.026;2022-11-14T01:27:14;184.18;;;79.60;;
48357;SDS011;41929;51.478;-0.026;2022-11-14T01:29:40;170.30;;;76.55;;
48357;SDS011;41929;51.478;-0.026;2022-11-14T01:32:05;160.88;;;72.30;;
48357;SDS011;41929;51.478;-0.026;2022-11-14T01:34:31;168.15;;;73.70;;
48357;SDS011;41929;51.478;-0.026;2022-11-14T01:36:56;163.73;;;74.10;;
48357;SDS011;41929;51.478;-0.026;2022-11-14T01:39:21;163.77;;;74.00;;
48357;SDS011;41929;51.478;-0.026;2022-11-14T01:41:47;165.13;;;74.88;;
48357;SDS011;41929;51.478;-0.026;2022-11-14T01:44:14;164.55;;;75.95;;
48357;SDS011;41929;51.478;-0.026;2022-11-14T01:46:41;193.93;;;75.28;;
48357;SDS011;41929;51.478;-0.026;2022-11-14T01:49:14;163.52;;;70.25;;
48357;SDS011;41929;51.478;-0.026;2022-11-14T01:51:50;180.23;;;69.82;;
48357;SDS011;41929;51.478;-0.026;2022-11-14T01:54:29;152.90;;;65.53;;
48357;SDS011;41929;51.478;-0.026;2022-11-14T01:59:29;131.27;;;59.17;;
48357;SDS011;41929;51.478;-0.026;2022-11-14T02:02:03;126.25;;;58.20;;
48357;SDS011;41929;51.478;-0.026;2022-11-14T02:04:35;124.88;;;59.45;;
48357;SDS011;41929;51.478;-0.026;2022-11-14T02:07:05;140.48;;;63.92;;
48357;SDS011;41929;51.478;-0.026;2022-11-14T02:09:35;131.63;;;62.58;;
48357;SDS011;41929;51.478;-0.026;2022-11-14T02:12:03;141.00;;;61.72;;
48357;SDS011;41929;51.478;-0.026;2022-11-14T02:14:31;130.23;;;59.50;;
48357;SDS011;41929;51.478;-0.026;2022-11-14T02:16:57;126.75;;;60.85;;
48357;SDS011;41929;51.478;-0.026;2022-11-14T02:19:23;124.50;;;61.72;;
48357;SDS011;41929;51.478;-0.026;2022-11-14T02:21:48;127.40;;;62.03;;
48357;SDS011;41929;51.478;-0.026;2022-11-14T02:24:14;122.50;;;58.75;;
48357;SDS011;41929;51.478;-0.026;2022-11-14T02:26:39;126.40;;;58.15;;
48357;SDS011;41929;51.478;-0.026;2022-11-14T02:29:07;120.40;;;57.80;;
48357;SDS011;41929;51.478;-0.026;2022-11-14T02:31:34;118.82;;;58.72;;
48357;SDS011;41929;51.478;-0.026;2022-11-14T02:34:00;122.05;;;59.10;;
48357;SDS011;41929;51.478;-0.026;2022-11-14T02:36:26;124.80;;;58.90;;
48357;SDS011;41929;51.478;-0.026;2022-11-14T02:38:51;113.20;;;56.88;;
48357;SDS011;41929;51.478;-0.026;2022-11-14T02:41:17;119.00;;;55.60;;
48357;SDS011;41929;51.478;-0.026;2022-11-14T02:43:42;106.63;;;53.35;;
48357;SDS011;41929;51.478;-0.026;2022-11-14T02:46:07;114.80;;;55.95;;
48357;SDS011;41929;51.478;-0.026;2022-11-14T02:48:34;116.32;;;58.03;;
48357;SDS011;41929;51.478;-0.026;2022-11-14T02:50:59;121.28;;;58.70;;
48357;SDS011;41929;51.478;-0.026;2022-11-14T02:53:24;123.25;;;56.38;;
48357;SDS011;41929;51.478;-0.026;2022-11-14T02:55:50;117.25;;;56.50;;
48357;SDS011;41929;51.478;-0.026;2022-11-14T02:58:15;119.60;;;56.95;;
48357;SDS011;41929;51.478;-0.026;2022-11-14T03:00:40;113.95;;;56.83;;
48357;SDS011;41929;51.478;-0.026;2022-11-14T03:03:06;120.40;;;58.47;;
48357;SDS011;41929;51.478;-0.026;2022-11-14T03:05:31;108.53;;;55.13;;
48357;SDS011;41929;51.478;-0.026;2022-11-14T03:07:56;105.55;;;53.42;;
48357;SDS011;41929;51.478;-0.026;2022-11-14T03:10:22;118.03;;;57.42;;
48357;SDS011;41929;51.478;-0.026;2022-11-14T03:12:57;117.75;;;54.42;;
48357;SDS011;41929;51.478;-0.026;2022-11-14T03:15:23;113.95;;;53.63;;
48357;SDS011;41929;51.478;-0.026;2022-11-14T03:17:48;105.30;;;50.97;;
48357;SDS011;41929;51.478;-0.026;2022-11-14T03:20:14;117.88;;;54.08;;
48357;SDS011;41929;51.478;-0.026;2022-11-14T03:22:40;108.28;;;52.97;;
48357;SDS011;41929;51.478;-0.026;2022-11-14T03:25:06;109.93;;;53.22;;
48357;SDS011;41929;51.478;-0.026;2022-11-14T03:27:31;114.05;;;55.95;;
48357;SDS011;41929;51.478;-0.026;2022-11-14T03:29:57;112.63;;;54.05;;
48357;SDS011;41929;51.478;-0.026;2022-11-14T03:32:22;125.07;;;55.72;;
48357;SDS011;41929;51.478;-0.026;2022-11-14T03:34:47;122.05;;;53.47;;
48357;SDS011;41929;51.478;-0.026;2022-11-14T03:37:13;157.68;;;58.80;;
48357;SDS011;41929;51.478;-0.026;2022-11-14T03:39:38;132.52;;;56.35;;
48357;SDS011;41929;51.478;-0.026;2022-11-14T03:42:03;144.00;;;59.30;;
48357;SDS011;41929;51.478;-0.026;2022-11-14T03:44:29;135.13;;;57.88;;
48357;SDS011;41929;51.478;-0.026;2022-11-14T03:46:54;142.07;;;59.90;;
48357;SDS011;41929;51.478;-0.026;2022-11-14T03:49:20;140.15;;;58.85;;
48357;SDS011;41929;51.478;-0.026;2022-11-14T03:51:45;133.00;;;56.35;;
48357;SDS011;41929;51.478;-0.026;2022-11-14T03:54:10;145.95;;;58.03;;
48357;SDS011;41929;51.478;-0.026;2022-11-14T03:56:36;116.53;;;50.90;;
48357;SDS011;41929;51.478;-0.026;2022-11-14T03:59:01;119.13;;;51.33;;
48357;SDS011;41929;51.478;-0.026;2022-11-14T04:01:26;130.48;;;53.63;;
48357;SDS011;41929;51.478;-0.026;2022-11-14T04:03:53;133.40;;;53.15;;
48357;SDS011;41929;51.478;-0.026;2022-11-14T04:06:18;105.00;;;50.00;;
48357;SDS011;41929;51.478;-0.026;2022-11-14T04:08:43;130.98;;;50.10;;
48357;SDS011;41929;51.478;-0.026;2022-11-14T04:11:09;116.38;;;47.53;;
48357;SDS011;41929;51.478;-0.026;2022-11-14T04:13:34;118.90;;;49.58;;
48357;SDS011;41929;51.478;-0.026;2022-11-14T04:15:59;133.68;;;51.03;;
48357;SDS011;41929;51.478;-0.026;2022-11-14T04:18:25;142.00;;;52.53;;
48357;SDS011;41929;51.478;-0.026;2022-11-14T04:20:51;168.98;;;53.53;;
48357;SDS011;41929;51.478;-0.026;2022-11-14T04:23:16;180.85;;;53.70;;
48357;SDS011;41929;51.478;-0.026;2022-11-14T04:25:43;351.52;;;63.45;;
48357;SDS011;41929;51.478;-0.026;2022-11-14T04:28:09;145.68;;;49.05;;
48357;SDS011;41929;51.478;-0.026;2022-11-14T04:30:35;92.95;;;42.85;;
48357;SDS011;41929;51.478;-0.026;2022-11-14T04:33:00;95.22;;;42.05;;
48357;SDS011;41929;51.478;-0.026;2022-11-14T04:35:26;98.93;;;45.17;;
48357;SDS011;41929;51.478;-0.026;2022-11-14T04:37:51;99.85;;;46.15;;
48357;SDS011;41929;51.478;-0.026;2022-11-14T04:40:16;94.82;;;46.60;;
48357;SDS011;41929;51.478;-0.026;2022-11-14T04:42:42;102.90;;;44.97;;
48357;SDS011;41929;51.478;-0.026;2022-11-14T04:45:07;99.95;;;47.63;;
48357;SDS011;41929;51.478;-0.026;2022-11-14T04:47:33;110.60;;;50.35;;
48357;SDS011;41929;51.478;-0.026;2022-11-14T04:49:58;96.72;;;46.08;;
48357;SDS011;41929;51.478;-0.026;2022-11-14T04:52:24;103.65;;;46.40;;
48357;SDS011;41929;51.478;-0.026;2022-11-14T04:54:49;96.80;;;47.08;;
48357;SDS011;41929;51.478;-0.026;2022-11-14T04:57:14;107.72;;;49.75;;
48357;SDS011;41929;51.478;-0.026;2022-11-14T04:59:41;104.35;;;48.67;;
48357;SDS011;41929;51.478;-0.026;2022-11-14T05:02:08;104.97;;;49.17;;
48357;SDS011;41929;51.478;-0.026;2022-11-14T05:04:33;100.22;;;45.97;;
48357;SDS011;41929;51.478;-0.026;2022-11-14T05:06:59;95.63;;;44.90;;
48357;SDS011;41929;51.478;-0.026;2022-11-14T05:09:24;96.20;;;44.78;;
48357;SDS011;41929;51.478;-0.026;2022-11-14T05:11:50;92.45;;;45.38;;
48357;SDS011;41929;51.478;-0.026;2022-11-14T05:14:15;83.88;;;39.00;;
48357;SDS011;41929;51.478;-0.026;2022-11-14T05:16:40;75.93;;;36.08;;
48357;SDS011;41929;51.478;-0.026;2022-11-14T05:19:06;89.32;;;40.88;;
48357;SDS011;41929;51.478;-0.026;2022-11-14T05:21:31;1.50;;;1.40;;
48357;SDS011;41929;51.478;-0.026;2022-11-14T05:23:56;23.35;;;10.27;;
48357;SDS011;41929;51.478;-0.026;2022-11-14T05:26:22;2.53;;;2.42;;
48357;SDS011;41929;51.478;-0.026;2022-11-14T05:28:47;4.10;;;3.80;;
48357;SDS011;41929;51.478;-0.026;2022-11-14T05:31:13;0.20;;;0.20;;
48357;SDS011;41929;51.478;-0.026;2022-11-14T05:33:41;66.60;;;29.50;;
48357;SDS011;41929;51.478;-0.026;2022-11-14T05:36:08;0.85;;;0.85;;
48357;SDS011;41929;51.478;-0.026;2022-11-14T05:38:38;0.40;;;0.40;;
48357;SDS011;41929;51.478;-0.026;2022-11-14T05:41:06;21.08;;;10.15;;
48357;SDS011;41929;51.478;-0.026;2022-11-14T05:43:50;0.20;;;0.20;;
48357;SDS011;41929;51.478;-0.026;2022-11-14T05:46:15;0.45;;;0.45;;
48357;SDS011;41929;51.478;-0.026;2022-11-14T05:48:41;0.50;;;0.50;;
48357;SDS011;41929;51.478;-0.026;2022-11-14T05:51:08;1.38;;;0.80;;
48357;SDS011;41929;51.478;-0.026;2022-11-14T05:53:36;2.67;;;2.58;;
48357;SDS011;41929;51.478;-0.026;2022-11-14T05:56:02;32.55;;;11.32;;
48357;SDS011;41929;51.478;-0.026;2022-11-14T05:58:32;0.20;;;0.20;;
48357;SDS011;41929;51.478;-0.026;2022-11-14T06:01:12;1.77;;;1.75;;
48357;SDS011;41929;51.478;-0.026;2022-11-14T06:03:42;1.30;;;1.30;;
48357;SDS011;41929;51.478;-0.026;2022-11-14T06:06:10;3.67;;;3.35;;
48357;SDS011;41929;51.478;-0.026;2022-11-14T06:08:37;0.20;;;0.20;;
48357;SDS011;41929;51.478;-0.026;2022-11-14T06:11:06;0.90;;;0.77;;
48357;SDS011;41929;51.478;-0.026;2022-11-14T06:13:33;0.15;;;0.15;;
48357;SDS011;41929;51.478;-0.026;2022-11-14T06:16:00;0.68;;;0.68;;
48357;SDS011;41929;51.478;-0.026;2022-11-14T06:18:26;0.20;;;0.20;;
48357;SDS011;41929;51.478;-0.026;2022-11-14T06:20:53;0.30;;;0.30;;
48357;SDS011;41929;51.478;-0.026;2022-11-14T06:23:22;0.20;;;0.20;;
48357;SDS011;41929;51.478;-0.026;2022-11-14T06:25:47;0.13;;;0.13;;
48357;SDS011;41929;51.478;-0.026;2022-11-14T06:28:13;0.30;;;0.30;;
48357;SDS011;41929;51.478;-0.026;2022-11-14T06:30:38;0.20;;;0.20;;
48357;SDS011;41929;51.478;-0.026;2022-11-14T06:33:05;5.18;;;4.90;;
48357;SDS011;41929;51.478;-0.026;2022-11-14T06:35:31;2.25;;;2.15;;
48357;SDS011;41929;51.478;-0.026;2022-11-14T06:37:58;1.58;;;1.58;;
48357;SDS011;41929;51.478;-0.026;2022-11-14T06:40:23;0.45;;;0.45;;
48357;SDS011;41929;51.478;-0.026;2022-11-14T06:42:49;0.50;;;0.50;;
48357;SDS011;41929;51.478;-0.026;2022-11-14T06:45:14;0.68;;;0.68;;
48357;SDS011;41929;51.478;-0.026;2022-11-14T06:47:39;0.10;;;0.10;;
48357;SDS011;41929;51.478;-0.026;2022-11-14T06:50:05;0.52;;;0.52;;
48357;SDS011;41929;51.478;-0.026;2022-11-14T06:52:31;0.30;;;0.30;;
48357;SDS011;41929;51.478;-0.026;2022-11-14T06:54:56;2.65;;;2.50;;
48357;SDS011;41929;51.478;-0.026;2022-11-14T06:57:21;0.20;;;0.20;;
48357;SDS011;41929;51.478;-0.026;2022-11-14T06:59:47;0.15;;;0.15;;
48357;SDS011;41929;51.478;-0.026;2022-11-14T07:02:12;0.20;;;0.20;;
48357;SDS011;41929;51.478;-0.026;2022-11-14T07:04:38;1.25;;;1.25;;
48357;SDS011;41929;51.478;-0.026;2022-11-14T07:07:03;0.10;;;0.10;;
48357;SDS011;41929;51.478;-0.026;2022-11-14T07:09:28;0.63;;;0.63;;
48357;SDS011;41929;51.478;-0.026;2022-11-14T07:11:54;0.20;;;0.20;;
48357;SDS011;41929;51.478;-0.026;2022-11-14T07:14:19;0.13;;;0.13;;
48357;SDS011;41929;51.478;-0.026;2022-11-14T07:16:44;2.28;;;2.17;;
48357;SDS011;41929;51.478;-0.026;2022-11-14T07:19:10;0.10;;;0.10;;
48357;SDS011;41929;51.478;-0.026;2022-11-14T07:21:36;0.40;;;0.40;;
48357;SDS011;41929;51.478;-0.026;2022-11-14T07:24:01;1.55;;;1.52;;
48357;SDS011;41929;51.478;-0.026;2022-11-14T07:26:27;2.25;;;2.05;;
48357;SDS011;41929;51.478;-0.026;2022-11-14T07:28:53;0.77;;;0.77;;
48357;SDS011;41929;51.478;-0.026;2022-11-14T07:31:18;2.58;;;2.47;;
48357;SDS011;41929;51.478;-0.026;2022-11-14T07:33:44;1.48;;;1.48;;
48357;SDS011;41929;51.478;-0.026;2022-11-14T07:36:10;5.95;;;3.97;;
48357;SDS011;41929;51.478;-0.026;2022-11-14T07:38:37;15.18;;;6.35;;
48357;SDS011;41929;51.478;-0.026;2022-11-14T07:41:10;2.35;;;2.15;;
48357;SDS011;41929;51.478;-0.026;2022-11-14T07:43:37;3.13;;;2.63;;
48357;SDS011;41929;51.478;-0.026;2022-11-14T07:46:08;0.43;;;0.43;;
48357;SDS011;41929;51.478;-0.026;2022-11-14T07:48:37;3.60;;;2.38;;
48357;SDS011;41929;51.478;-0.026;2022-11-14T07:51:03;2.00;;;1.95;;
48357;SDS011;41929;51.478;-0.026;2022-11-14T07:53:30;1.50;;;1.45;;
48357;SDS011;41929;51.478;-0.026;2022-11-14T07:55:56;0.90;;;0.88;;
48357;SDS011;41929;51.478;-0.026;2022-11-14T07:58:25;16.40;;;4.18;;
48357;SDS011;41929;51.478;-0.026;2022-11-14T08:00:51;0.50;;;0.50;;
48357;SDS011;41929;51.478;-0.026;2022-11-14T08:03:16;1.65;;;1.52;;
48357;SDS011;41929;51.478;-0.026;2022-11-14T08:05:42;1.75;;;0.95;;
48357;SDS011;41929;51.478;-0.026;2022-11-14T08:08:07;0.57;;;0.57;;
48357;SDS011;41929;51.478;-0.026;2022-11-14T08:10:32;0.10;;;0.10;;
48357;SDS011;41929;51.478;-0.026;2022-11-14T08:12:58;0.20;;;0.20;;
48357;SDS011;41929;51.478;-0.026;2022-11-14T08:15:26;0.20;;;0.20;;
48357;SDS011;41929;51.478;-0.026;2022-11-14T08:17:55;0.63;;;0.63;;
48357;SDS011;41929;51.478;-0.026;2022-11-14T08:20:24;3.63;;;1.17;;
48357;SDS011;41929;51.478;-0.026;2022-11-14T08:22:51;1.92;;;1.85;;
48357;SDS011;41929;51.478;-0.026;2022-11-14T08:25:18;0.20;;;0.20;;
48357;SDS011;41929;51.478;-0.026;2022-11-14T08:27:44;0.10;;;0.10;;
48357;SDS011;41929;51.478;-0.026;2022-11-14T08:30:10;0.10;;;0.10;;
48357;SDS011;41929;51.478;-0.026;2022-11-14T08:32:36;0.20;;;0.20;;
48357;SDS011;41929;51.478;-0.026;2022-11-14T08:35:01;0.20;;;0.20;;
48357;SDS011;41929;51.478;-0.026;2022-11-14T08:37:27;2.17;;;2.17;;
48357;SDS011;41929;51.478;-0.026;2022-11-14T08:39:52;0.10;;;0.10;;
48357;SDS011;41929;51.478;-0.026;2022-11-14T08:42:18;0.13;;;0.13;;
48357;SDS011;41929;51.478;-0.026;2022-11-14T08:44:43;0.10;;;0.10;;
48357;SDS011;41929;51.478;-0.026;2022-11-14T08:47:08;0.10;;;0.10;;
48357;SDS011;41929;51.478;-0.026;2022-11-14T08:49:34;0.13;;;0.13;;
48357;SDS011;41929;51.478;-0.026;2022-11-14T08:51:59;0.68;;;0.68;;
48357;SDS011;41929;51.478;-0.026;2022-11-14T08:54:24;4.57;;;1.50;;
48357;SDS011;41929;51.478;-0.026;2022-11-14T08:56:50;0.75;;;0.75;;
48357;SDS011;41929;51.478;-0.026;2022-11-14T08:59:15;0.20;;;0.20;;
48357;SDS011;41929;51.478;-0.026;2022-11-14T09:01:41;0.10;;;0.10;;
48357;SDS011;41929;51.478;-0.026;2022-11-14T09:04:06;0.10;;;0.10;;
48357;SDS011;41929;51.478;-0.026;2022-11-14T09:06:32;0.20;;;0.20;;
48357;SDS011;41929;51.478;-0.026;2022-11-14T09:08:58;0.13;;;0.13;;
48357;SDS011;41929;51.478;-0.026;2022-11-14T09:11:23;0.80;;;0.80;;
48357;SDS011;41929;51.478;-0.026;2022-11-14T09:13:49;0.13;;;0.13;;
48357;SDS011;41929;51.478;-0.026;2022-11-14T09:16:14;0.10;;;0.10;;
48357;SDS011;41929;51.478;-0.026;2022-11-14T09:18:39;0.25;;;0.25;;
48357;SDS011;41929;51.478;-0.026;2022-11-14T09:21:05;18.35;;;9.93;;
48357;SDS011;41929;51.478;-0.026;2022-11-14T09:23:32;52.40;;;19.75;;
48357;SDS011;41929;51.478;-0.026;2022-11-14T09:26:02;36.25;;;17.58;;
48357;SDS011;41929;51.478;-0.026;2022-11-14T09:28:28;37.00;;;18.10;;
48357;SDS011;41929;51.478;-0.026;2022-11-14T09:30:58;13.90;;;6.70;;
48357;SDS011;41929;51.478;-0.026;2022-11-14T09:33:29;0.10;;;0.10;;
48357;SDS011;41929;51.478;-0.026;2022-11-14T09:35:55;0.10;;;0.10;;
48357;SDS011;41929;51.478;-0.026;2022-11-14T09:38:24;1.23;;;1.20;;
48357;SDS011;41929;51.478;-0.026;2022-11-14T09:49:01;0.88;;;0.65;;
48357;SDS011;41929;51.478;-0.026;2022-11-14T09:51:34;0.00;;;0.00;;
48357;SDS011;41929;51.478;-0.026;2022-11-14T09:54:16;0.10;;;0.10;;
48357;SDS011;41929;51.478;-0.026;2022-11-14T09:56:43;0.60;;;0.60;;
48357;SDS011;41929;51.478;-0.026;2022-11-14T09:59:09;1.58;;;1.48;;
48357;SDS011;41929;51.478;-0.026;2022-11-14T10:09:59;2.67;;;2.00;;
48357;SDS011;41929;51.478;-0.026;2022-11-14T10:12:42;1.98;;;1.45;;
48357;SDS011;41929;51.478;-0.026;2022-11-14T10:18:31;7.07;;;2.42;;
48357;SDS011;41929;51.478;-0.026;2022-11-14T10:26:29;3.13;;;2.63;;
48357;SDS011;41929;51.478;-0.026;2022-11-14T10:35:00;0.10;;;0.10;;
48357;SDS011;41929;51.478;-0.026;2022-11-14T10:40:17;0.40;;;0.40;;
48357;SDS011;41929;51.478;-0.026;2022-11-14T10:42:53;1.38;;;1.35;;
48357;SDS011;41929;51.478;-0.026;2022-11-14T10:48:02;1.65;;;1.38;;
48357;SDS011;41929;51.478;-0.026;2022-11-14T10:54:02;0.20;;;0.20;;
48357;SDS011;41929;51.478;-0.026;2022-11-14T10:56:10;0.50;;;0.50;;
48357;SDS011;41929;51.478;-0.026;2022-11-14T10:58:39;0.10;;;0.10;;
48357;SDS011;41929;51.478;-0.026;2022-11-14T11:04:19;0.75;;;0.75;;
48357;SDS011;41929;51.478;-0.026;2022-11-14T11:06:45;0.65;;;0.65;;
48357;SDS011;41929;51.478;-0.026;2022-11-14T11:09:13;2.60;;;2.50;;
48357;SDS011;41929;51.478;-0.026;2022-11-14T11:12:05;0.10;;;0.10;;
48357;SDS011;41929;51.478;-0.026;2022-11-14T11:14:32;3.72;;;1.98;;
48357;SDS011;41929;51.478;-0.026;2022-11-14T11:19:37;2.40;;;2.20;;
48357;SDS011;41929;51.478;-0.026;2022-11-14T11:22:03;2.90;;;2.70;;
48357;SDS011;41929;51.478;-0.026;2022-11-14T11:24:33;0.85;;;0.85;;
48357;SDS011;41929;51.478;-0.026;2022-11-14T11:30:00;13.15;;;6.10;;
48357;SDS011;41929;51.478;-0.026;2022-11-14T11:32:28;1.73;;;1.60;;
48357;SDS011;41929;51.478;-0.026;2022-11-14T11:34:53;7.80;;;2.50;;
48357;SDS011;41929;51.478;-0.026;2022-11-14T11:37:24;10.70;;;6.13;;
48357;SDS011;41929;51.478;-0.026;2022-11-14T11:40:04;3.05;;;2.13;;
48357;SDS011;41929;51.478;-0.026;2022-11-14T11:45:32;2.83;;;2.67;;
48357;SDS011;41929;51.478;-0.026;2022-11-14T11:50:38;3.55;;;3.35;;
48357;SDS011;41929;51.478;-0.026;2022-11-14T11:53:18;5.30;;;4.47;;
48357;SDS011;41929;51.478;-0.026;2022-11-14T11:55:49;7.32;;;4.38;;
48357;SDS011;41929;51.478;-0.026;2022-11-14T12:00:55;5.20;;;4.00;;
48357;SDS011;41929;51.478;-0.026;2022-11-14T12:03:20;3.78;;;2.63;;
48357;SDS011;41929;51.478;-0.026;2022-11-14T12:11:00;1.90;;;1.80;;
48357;SDS011;41929;51.478;-0.026;2022-11-14T12:16:29;7.50;;;2.38;;
48357;SDS011;41929;51.478;-0.026;2022-11-14T12:27:33;1.05;;;1.05;;
48357;SDS011;41929;51.478;-0.026;2022-11-14T12:30:07;0.47;;;0.47;;
48357;SDS011;41929;51.478;-0.026;2022-11-14T12:32:40;0.10;;;0.10;;
48357;SDS011;41929;51.478;-0.026;2022-11-14T12:35:14;2.38;;;1.95;;
48357;SDS011;41929;51.478;-0.026;2022-11-14T12:37:44;0.68;;;0.68;;
48357;SDS011;41929;51.478;-0.026;2022-11-14T12:40:30;0.20;;;0.20;;
48357;SDS011;41929;51.478;-0.026;2022-11-14T12:42:59;4.18;;;2.20;;
48357;SDS011;41929;51.478;-0.026;2022-11-14T12:48:43;0.28;;;0.28;;
48357;SDS011;41929;51.478;-0.026;2022-11-14T12:50:49;0.10;;;0.10;;
48357;SDS011;41929;51.478;-0.026;2022-11-14T12:58:54;10.73;;;7.57;;
48357;SDS011;41929;51.478;-0.026;2022-11-14T13:12:32;1.17;;;1.08;;
48357;SDS011;41929;51.478;-0.026;2022-11-14T13:18:16;0.57;;;0.57;;
48357;SDS011;41929;51.478;-0.026;2022-11-14T13:21:05;6.10;;;2.63;;
48357;SDS011;41929;51.478;-0.026;2022-11-14T13:23:59;4.68;;;4.28;;
48357;SDS011;41929;51.478;-0.026;2022-11-14T13:28:50;2.50;;;2.30;;
48357;SDS011;41929;51.478;-0.026;2022-11-14T13:31:22;2.83;;;2.47;;
48357;SDS011;41929;51.478;-0.026;2022-11-14T13:33:49;5.72;;;5.15;;
48357;SDS011;41929;51.478;-0.026;2022-11-14T13:39:48;0.13;;;0.13;;
48357;SDS011;41929;51.478;-0.026;2022-11-14T13:50:38;0.52;;;0.52;;
48357;SDS011;41929;51.478;-0.026;2022-11-14T13:53:18;1.60;;;1.50;;
48357;SDS011;41929;51.478;-0.026;2022-11-14T14:20:50;2.35;;;2.05;;
48357;SDS011;41929;51.478;-0.026;2022-11-14T14:26:11;4.35;;;2.63;;
48357;SDS011;41929;51.478;-0.026;2022-11-14T14:28:50;7.70;;;3.97;;
48357;SDS011;41929;51.478;-0.026;2022-11-14T14:31:34;1.10;;;1.10;;
48357;SDS011;41929;51.478;-0.026;2022-11-14T14:34:01;1.15;;;1.15;;
48357;SDS011;41929;51.478;-0.026;2022-11-14T14:36:51;0.10;;;0.10;;
48357;SDS011;41929;51.478;-0.026;2022-11-14T14:39:19;1.77;;;1.67;;
48357;SDS011;41929;51.478;-0.026;2022-11-14T14:41:49;3.42;;;3.13;;
48357;SDS011;41929;51.478;-0.026;2022-11-14T14:46:56;0.60;;;0.60;;
48357;SDS011;41929;51.478;-0.026;2022-11-14T14:49:23;0.08;;;0.08;;
48357;SDS011;41929;51.478;-0.026;2022-11-14T14:51:52;4.68;;;1.85;;
48357;SDS011;41929;51.478;-0.026;2022-11-14T14:54:20;4.57;;;4.22;;
48357;SDS011;41929;51.478;-0.026;2022-11-14T14:56:53;3.40;;;2.58;;
48357;SDS011;41929;51.478;-0.026;2022-11-14T14:59:22;1.00;;;1.00;;
48357;SDS011;41929;51.478;-0.026;2022-11-14T15:01:48;4.55;;;3.70;;
48357;SDS011;41929;51.478;-0.026;2022-11-14T15:04:14;4.05;;;2.97;;
48357;SDS011;41929;51.478;-0.026;2022-11-14T15:06:43;2.40;;;2.20;;
48357;SDS011;41929;51.478;-0.026;2022-11-14T15:11:43;0.50;;;0.50;;
48357;SDS011;41929;51.478;-0.026;2022-11-14T15:14:12;1.40;;;1.40;;
48357;SDS011;41929;51.478;-0.026;2022-11-14T15:16:41;0.47;;;0.47;;
48357;SDS011;41929;51.478;-0.026;2022-11-14T15:19:12;0.73;;;0.73;;
48357;SDS011;41929;51.478;-0.026;2022-11-14T15:21:40;3.13;;;1.95;;
48357;SDS011;41929;51.478;-0.026;2022-11-14T15:24:20;5.90;;;5.35;;
48357;SDS011;41929;51.478;-0.026;2022-11-14T15:26:47;2.05;;;1.55;;
48357;SDS011;41929;51.478;-0.026;2022-11-14T15:29:18;4.30;;;3.22;;
48357;SDS011;41929;51.478;-0.026;2022-11-14T15:31:46;3.97;;;3.75;;
48357;SDS011;41929;51.478;-0.026;2022-11-14T15:37:30;0.70;;;0.70;;
48357;SDS011;41929;51.478;-0.026;2022-11-14T15:40:13;0.50;;;0.50;;
48357;SDS011;41929;51.478;-0.026;2022-11-14T15:42:40;5.00;;;4.07;;
48357;SDS011;41929;51.478;-0.026;2022-11-14T15:48:14;2.92;;;2.72;;
48357;SDS011;41929;51.478;-0.026;2022-11-14T15:50:42;4.28;;;3.90;;
48357;SDS011;41929;51.478;-0.026;2022-11-14T15:55:47;9.48;;;6.07;;
48357;SDS011;41929;51.478;-0.026;2022-11-14T15:58:13;3.85;;;3.65;;
48357;SDS011;41929;51.478;-0.026;2022-11-14T16:00:39;3.30;;;2.20;;
48357;SDS011;41929;51.478;-0.026;2022-11-14T16:03:16;8.07;;;4.93;;
48357;SDS011;41929;51.478;-0.026;2022-11-14T16:05:43;0.38;;;0.38;;
48357;SDS011;41929;51.478;-0.026;2022-11-14T16:08:10;2.67;;;2.50;;
48357;SDS011;41929;51.478;-0.026;2022-11-14T16:10:35;3.40;;;3.10;;
48357;SDS011;41929;51.478;-0.026;2022-11-14T16:13:01;1.15;;;1.15;;
48357;SDS011;41929;51.478;-0.026;2022-11-14T16:15:26;3.88;;;3.53;;
48357;SDS011;41929;51.478;-0.026;2022-11-14T16:17:52;0.80;;;0.80;;
48357;SDS011;41929;51.478;-0.026;2022-11-14T16:20:18;0.17;;;0.17;;
48357;SDS011;41929;51.478;-0.026;2022-11-14T16:22:49;4.55;;;4.35;;
48357;SDS011;41929;51.478;-0.026;2022-11-14T16:25:34;0.40;;;0.40;;
48357;SDS011;41929;51.478;-0.026;2022-11-14T16:28:00;0.10;;;0.10;;
48357;SDS011;41929;51.478;-0.026;2022-11-14T16:30:25;9.75;;;2.53;;
48357;SDS011;41929;51.478;-0.026;2022-11-14T16:32:51;1.00;;;1.00;;
48357;SDS011;41929;51.478;-0.026;2022-11-14T16:35:18;1.60;;;1.55;;
48357;SDS011;41929;51.478;-0.026;2022-11-14T16:37:45;0.20;;;0.20;;
48357;SDS011;41929;51.478;-0.026;2022-11-14T16:40:15;0.15;;;0.15;;
48357;SDS011;41929;51.478;-0.026;2022-11-14T16:42:43;0.32;;;0.32;;
48357;SDS011;41929;51.478;-0.026;2022-11-14T16:45:10;5.15;;;2.97;;
48357;SDS011;41929;51.478;-0.026;2022-11-14T16:47:35;0.30;;;0.30;;
48357;SDS011;41929;51.478;-0.026;2022-11-14T16:50:01;0.45;;;0.45;;
48357;SDS011;41929;51.478;-0.026;2022-11-14T16:52:27;3.15;;;1.65;;
48357;SDS011;41929;51.478;-0.026;2022-11-14T16:54:52;4.80;;;2.75;;
48357;SDS011;41929;51.478;-0.026;2022-11-14T16:57:18;2.13;;;2.03;;
48357;SDS011;41929;51.478;-0.026;2022-11-14T16:59:43;3.67;;;3.35;;